sensor_id;sensor_type;location;lat;lon;timestamp;pressure;altitude;pressure_sealevel;temperature;humidity
55757;BME280;41676;44.610;44.078;2023-11-19T00:01:12;99988.88;;;6.35;91.15
55757;BME280;41676;44.610;44.078;2023-11-19T00:06:12;100014.19;;;6.28;91.53
55757;BME280;41676;44.610;44.078;2023-11-19T00:11:13;100037.25;;;6.26;92.24
55757;BME280;41676;44.610;44.078;2023-11-19T00:16:16;100047.78;;;6.26;94.12
55757;BME280;41676;44.610;44.078;2023-11-19T00:21:16;100050.03;;;6.21;94.44
55757;BME280;41676;44.610;44.078;2023-11-19T00:26:17;100033.38;;;6.21;94.95
55757;BME280;41676;44.610;44.078;2023-11-19T00:31:18;100018.28;;;6.13;96.15
55757;BME280;41676;44.610;44.078;2023-11-19T00:36:19;100017.31;;;6.14;96.80
55757;BME280;41676;44.610;44.078;2023-11-19T00:41:20;99996.38;;;6.12;97.48
55757;BME280;41676;44.610;44.078;2023-11-19T00:46:21;99979.88;;;6.10;97.53
55757;BME280;41676;44.610;44.078;2023-11-19T00:51:21;99987.81;;;6.01;98.51
55757;BME280;41676;44.610;44.078;2023-11-19T00:56:22;99982.44;;;5.92;99.18
55757;BME280;41676;44.610;44.078;2023-11-19T01:01:23;99916.59;;;5.55;100.00
55757;BME280;41676;44.610;44.078;2023-11-19T01:06:28;99968.94;;;5.68;100.00
55757;BME280;41676;44.610;44.078;2023-11-19T01:11:29;99873.25;;;5.02;100.00
55757;BME280;41676;44.610;44.078;2023-11-19T01:16:30;99954.06;;;5.49;100.00
55757;BME280;41676;44.610;44.078;2023-11-19T01:21:31;99892.34;;;5.24;100.00
55757;BME280;41676;44.610;44.078;2023-11-19T01:26:32;99935.56;;;5.59;100.00
55757;BME280;41676;44.610;44.078;2023-11-19T01:31:32;99863.59;;;5.31;100.00
55757;BME280;41676;44.610;44.078;2023-11-19T01:36:34;99902.94;;;5.69;100.00
55757;BME280;41676;44.610;44.078;2023-11-19T01:41:35;99898.34;;;5.71;100.00
55757;BME280;41676;44.610;44.078;2023-11-19T01:46:36;99882.66;;;5.70;100.00
55757;BME280;41676;44.610;44.078;2023-11-19T01:51:39;99886.00;;;5.72;100.00
55757;BME280;41676;44.610;44.078;2023-11-19T01:56:40;99919.38;;;5.81;100.00
55757;BME280;41676;44.610;44.078;2023-11-19T02:01:42;99903.69;;;5.80;100.00
55757;BME280;41676;44.610;44.078;2023-11-19T02:06:43;99859.38;;;5.47;100.00
55757;BME280;41676;44.610;44.078;2023-11-19T02:11:44;99875.50;;;5.62;100.00
55757;BME280;41676;44.610;44.078;2023-11-19T02:16:45;99848.03;;;5.65;100.00
55757;BME280;41676;44.610;44.078;2023-11-19T02:21:45;99842.44;;;5.68;100.00
55757;BME280;41676;44.610;44.078;2023-11-19T02:26:57;99850.00;;;5.63;100.00
55757;BME280;41676;44.610;44.078;2023-11-19T02:32:02;99833.16;;;5.46;100.00
55757;BME280;41676;44.610;44.078;2023-11-19T02:37:03;99818.25;;;5.37;100.00
55757;BME280;41676;44.610;44.078;2023-11-19T02:42:06;99832.88;;;5.49;100.00
55757;BME280;41676;44.610;44.078;2023-11-19T02:47:07;99826.28;;;5.63;100.00
55757;BME280;41676;44.610;44.078;2023-11-19T02:52:08;99712.41;;;5.06;100.00
55757;BME280;41676;44.610;44.078;2023-11-19T02:57:11;99801.97;;;5.69;100.00
55757;BME280;41676;44.610;44.078;2023-11-19T03:02:12;99798.34;;;5.70;100.00
55757;BME280;41676;44.610;44.078;2023-11-19T03:07:16;99768.44;;;5.61;100.00
55757;BME280;41676;44.610;44.078;2023-11-19T03:12:18;99796.38;;;5.72;100.00
55757;BME280;41676;44.610;44.078;2023-11-19T03:17:19;99812.03;;;5.73;100.00
55757;BME280;41676;44.610;44.078;2023-11-19T03:22:19;99794.56;;;5.72;100.00
55757;BME280;41676;44.610;44.078;2023-11-19T03:27:21;99806.63;;;5.75;100.00
55757;BME280;41676;44.610;44.078;2023-11-19T03:32:22;99801.97;;;5.87;100.00
55757;BME280;41676;44.610;44.078;2023-11-19T03:37:22;99786.97;;;5.87;100.00
55757;BME280;41676;44.610;44.078;2023-11-19T03:42:24;99788.63;;;5.88;100.00
55757;BME280;41676;44.610;44.078;2023-11-19T03:47:25;99776.13;;;5.90;100.00
55757;BME280;41676;44.610;44.078;2023-11-19T03:52:25;99787.66;;;5.89;100.00
55757;BME280;41676;44.610;44.078;2023-11-19T03:57:27;99787.28;;;5.84;100.00
55757;BME280;41676;44.610;44.078;2023-11-19T04:02:28;99794.13;;;5.95;100.00
55757;BME280;41676;44.610;44.078;2023-11-19T04:07:29;99775.69;;;5.95;100.00
55757;BME280;41676;44.610;44.078;2023-11-19T04:12:30;99721.59;;;5.73;100.00
55757;BME280;41676;44.610;44.078;2023-11-19T04:17:30;99710.63;;;5.78;100.00
55757;BME280;41676;44.610;44.078;2023-11-19T04:22:31;99725.53;;;6.05;100.00
55757;BME280;41676;44.610;44.078;2023-11-19T04:27:32;99717.91;;;6.02;100.00
55757;BME280;41676;44.610;44.078;2023-11-19T04:32:33;99728.81;;;6.07;100.00
55757;BME280;41676;44.610;44.078;2023-11-19T04:37:33;99722.88;;;6.05;100.00
55757;BME280;41676;44.610;44.078;2023-11-19T04:42:35;99717.13;;;6.09;100.00
55757;BME280;41676;44.610;44.078;2023-11-19T04:47:36;99655.47;;;5.84;100.00
55757;BME280;41676;44.610;44.078;2023-11-19T04:52:38;99711.09;;;6.17;100.00
55757;BME280;41676;44.610;44.078;2023-11-19T04:57:42;99709.66;;;6.23;100.00
55757;BME280;41676;44.610;44.078;2023-11-19T05:02:43;99608.59;;;5.70;100.00
55757;BME280;41676;44.610;44.078;2023-11-19T05:07:44;99686.13;;;6.29;100.00
55757;BME280;41676;44.610;44.078;2023-11-19T05:12:45;99650.78;;;6.22;100.00
55757;BME280;41676;44.610;44.078;2023-11-19T05:17:45;99704.25;;;6.58;100.00
55757;BME280;41676;44.610;44.078;2023-11-19T05:22:46;99678.38;;;6.62;100.00
55757;BME280;41676;44.610;44.078;2023-11-19T05:27:47;99683.00;;;6.68;100.00
55757;BME280;41676;44.610;44.078;2023-11-19T05:32:48;99657.94;;;6.72;100.00
55757;BME280;41676;44.610;44.078;2023-11-19T05:37:49;99596.66;;;6.44;100.00
55757;BME280;41676;44.610;44.078;2023-11-19T05:42:50;99646.09;;;6.84;100.00
55757;BME280;41676;44.610;44.078;2023-11-19T05:47:51;99644.59;;;6.82;100.00
55757;BME280;41676;44.610;44.078;2023-11-19T05:52:52;99659.16;;;7.02;100.00
55757;BME280;41676;44.610;44.078;2023-11-19T05:57:55;99658.34;;;7.02;100.00
55757;BME280;41676;44.610;44.078;2023-11-19T06:02:56;99660.50;;;7.06;100.00
55757;BME280;41676;44.610;44.078;2023-11-19T06:07:57;99637.06;;;7.12;100.00
55757;BME280;41676;44.610;44.078;2023-11-19T06:12:58;99644.84;;;7.13;100.00
55757;BME280;41676;44.610;44.078;2023-11-19T06:18:00;99638.06;;;7.11;100.00
55757;BME280;41676;44.610;44.078;2023-11-19T06:23:02;99664.50;;;7.19;100.00
55757;BME280;41676;44.610;44.078;2023-11-19T06:28:03;99623.00;;;6.86;100.00
55757;BME280;41676;44.610;44.078;2023-11-19T06:33:05;99605.16;;;6.80;100.00
55757;BME280;41676;44.610;44.078;2023-11-19T06:38:06;99600.72;;;6.89;100.00
55757;BME280;41676;44.610;44.078;2023-11-19T06:43:07;99622.41;;;7.09;100.00
55757;BME280;41676;44.610;44.078;2023-11-19T06:48:11;99619.91;;;7.24;100.00
55757;BME280;41676;44.610;44.078;2023-11-19T06:53:11;99600.28;;;7.35;100.00
55757;BME280;41676;44.610;44.078;2023-11-19T06:58:12;99589.53;;;7.44;100.00
55757;BME280;41676;44.610;44.078;2023-11-19T07:03:13;99578.28;;;7.50;100.00
55757;BME280;41676;44.610;44.078;2023-11-19T07:08:13;99514.25;;;7.24;100.00
55757;BME280;41676;44.610;44.078;2023-11-19T07:13:14;99545.91;;;7.65;100.00
55757;BME280;41676;44.610;44.078;2023-11-19T07:18:15;99509.56;;;7.59;100.00
55757;BME280;41676;44.610;44.078;2023-11-19T07:23:16;99501.06;;;7.80;100.00
55757;BME280;41676;44.610;44.078;2023-11-19T07:28:17;99503.84;;;7.86;100.00
55757;BME280;41676;44.610;44.078;2023-11-19T07:33:18;99486.00;;;7.88;100.00
55757;BME280;41676;44.610;44.078;2023-11-19T07:38:18;99486.81;;;7.97;100.00
55757;BME280;41676;44.610;44.078;2023-11-19T07:43:19;99452.31;;;7.82;100.00
55757;BME280;41676;44.610;44.078;2023-11-19T07:48:20;99475.34;;;8.05;100.00
55757;BME280;41676;44.610;44.078;2023-11-19T07:53:23;99441.50;;;8.00;100.00
55757;BME280;41676;44.610;44.078;2023-11-19T07:58:24;99445.22;;;8.14;100.00
55757;BME280;41676;44.610;44.078;2023-11-19T08:03:25;99429.72;;;8.11;100.00
55757;BME280;41676;44.610;44.078;2023-11-19T08:08:26;99417.50;;;8.01;100.00
55757;BME280;41676;44.610;44.078;2023-11-19T08:13:26;99429.16;;;8.15;100.00
55757;BME280;41676;44.610;44.078;2023-11-19T08:18:27;99398.44;;;8.14;100.00
55757;BME280;41676;44.610;44.078;2023-11-19T08:23:28;99380.53;;;8.16;100.00
55757;BME280;41676;44.610;44.078;2023-11-19T08:28:29;99380.13;;;8.28;100.00
55757;BME280;41676;44.610;44.078;2023-11-19T08:33:32;99358.97;;;8.28;100.00
55757;BME280;41676;44.610;44.078;2023-11-19T08:38:33;99344.06;;;8.35;100.00
55757;BME280;41676;44.610;44.078;2023-11-19T08:43:33;99326.97;;;8.37;100.00
55757;BME280;41676;44.610;44.078;2023-11-19T08:48:34;99319.03;;;8.37;100.00
55757;BME280;41676;44.610;44.078;2023-11-19T08:53:35;99292.25;;;8.40;100.00
55757;BME280;41676;44.610;44.078;2023-11-19T08:58:36;99250.69;;;8.26;100.00
55757;BME280;41676;44.610;44.078;2023-11-19T09:03:36;99189.59;;;7.98;100.00
55757;BME280;41676;44.610;44.078;2023-11-19T09:08:37;99300.94;;;8.64;100.00
55757;BME280;41676;44.610;44.078;2023-11-19T09:13:38;99344.25;;;8.71;100.00
55757;BME280;41676;44.610;44.078;2023-11-19T09:18:39;99345.16;;;8.78;100.00
55757;BME280;41676;44.610;44.078;2023-11-19T09:23:40;99280.41;;;8.51;100.00
55757;BME280;41676;44.610;44.078;2023-11-19T09:28:40;99296.41;;;8.87;100.00
55757;BME280;41676;44.610;44.078;2023-11-19T09:33:41;99254.75;;;8.81;100.00
55757;BME280;41676;44.610;44.078;2023-11-19T09:38:46;99242.78;;;8.85;100.00
55757;BME280;41676;44.610;44.078;2023-11-19T09:43:46;99265.44;;;8.88;100.00
55757;BME280;41676;44.610;44.078;2023-11-19T09:48:47;99276.03;;;8.88;100.00
55757;BME280;41676;44.610;44.078;2023-11-19T09:53:53;99285.81;;;8.87;100.00
55757;BME280;41676;44.610;44.078;2023-11-19T09:58:54;99278.69;;;8.88;100.00
55757;BME280;41676;44.610;44.078;2023-11-19T10:03:55;99272.41;;;8.89;100.00
55757;BME280;41676;44.610;44.078;2023-11-19T10:09:27;99263.88;;;8.94;100.00
55757;BME280;41676;44.610;44.078;2023-11-19T10:14:31;99234.75;;;8.79;100.00
55757;BME280;41676;44.610;44.078;2023-11-19T10:19:32;99224.16;;;8.79;100.00
55757;BME280;41676;44.610;44.078;2023-11-19T10:24:33;99231.72;;;8.97;100.00
55757;BME280;41676;44.610;44.078;2023-11-19T10:29:37;99231.38;;;9.00;100.00
55757;BME280;41676;44.610;44.078;2023-11-19T10:34:38;99227.34;;;9.04;100.00
55757;BME280;41676;44.610;44.078;2023-11-19T10:39:52;99104.44;;;8.47;100.00
55757;BME280;41676;44.610;44.078;2023-11-19T10:44:54;99122.00;;;8.69;100.00
55757;BME280;41676;44.610;44.078;2023-11-19T10:49:55;99148.69;;;9.04;100.00
55757;BME280;41676;44.610;44.078;2023-11-19T10:54:59;99110.56;;;8.84;100.00
55757;BME280;41676;44.610;44.078;2023-11-19T11:00:02;99147.03;;;9.03;100.00
55757;BME280;41676;44.610;44.078;2023-11-19T11:05:12;99146.59;;;9.00;100.00
55757;BME280;41676;44.610;44.078;2023-11-19T11:10:14;99159.75;;;9.08;100.00
55757;BME280;41676;44.610;44.078;2023-11-19T11:15:17;99156.91;;;9.09;100.00
55757;BME280;41676;44.610;44.078;2023-11-19T11:20:18;99119.72;;;8.81;100.00
55757;BME280;41676;44.610;44.078;2023-11-19T11:25:28;99175.09;;;9.12;100.00
55757;BME280;41676;44.610;44.078;2023-11-19T11:41:18;99060.19;;;8.77;100.00
55757;BME280;41676;44.610;44.078;2023-11-19T11:57:13;99141.91;;;9.17;100.00
55757;BME280;41676;44.610;44.078;2023-11-19T12:02:19;99123.72;;;9.13;100.00
55757;BME280;41676;44.610;44.078;2023-11-19T12:07:23;99141.25;;;9.14;100.00
55757;BME280;41676;44.610;44.078;2023-11-19T12:12:27;99077.59;;;8.86;100.00
55757;BME280;41676;44.610;44.078;2023-11-19T12:22:38;99119.44;;;9.12;100.00
55757;BME280;41676;44.610;44.078;2023-11-19T12:27:40;99077.34;;;9.03;100.00
55757;BME280;41676;44.610;44.078;2023-11-19T12:32:42;99103.09;;;9.09;100.00
55757;BME280;41676;44.610;44.078;2023-11-19T12:37:47;99103.28;;;9.07;100.00
55757;BME280;41676;44.610;44.078;2023-11-19T12:42:49;99093.94;;;9.11;100.00
55757;BME280;41676;44.610;44.078;2023-11-19T12:48:04;99090.03;;;9.07;100.00
55757;BME280;41676;44.610;44.078;2023-11-19T12:53:05;99065.06;;;8.95;100.00
55757;BME280;41676;44.610;44.078;2023-11-19T12:58:05;99082.91;;;9.08;100.00
55757;BME280;41676;44.610;44.078;2023-11-19T13:03:06;99083.56;;;9.10;100.00
55757;BME280;41676;44.610;44.078;2023-11-19T13:08:08;99109.22;;;9.09;100.00
55757;BME280;41676;44.610;44.078;2023-11-19T13:13:09;99077.44;;;9.09;100.00
55757;BME280;41676;44.610;44.078;2023-11-19T13:18:10;99096.59;;;9.11;100.00
55757;BME280;41676;44.610;44.078;2023-11-19T13:23:11;99078.69;;;9.13;100.00
55757;BME280;41676;44.610;44.078;2023-11-19T13:28:12;99070.47;;;9.08;100.00
55757;BME280;41676;44.610;44.078;2023-11-19T13:33:13;99062.16;;;9.11;100.00
55757;BME280;41676;44.610;44.078;2023-11-19T13:38:14;99070.75;;;9.13;100.00
55757;BME280;41676;44.610;44.078;2023-11-19T13:43:15;99009.94;;;8.84;100.00
55757;BME280;41676;44.610;44.078;2023-11-19T13:48:16;99058.91;;;9.09;100.00
55757;BME280;41676;44.610;44.078;2023-11-19T13:53:17;99059.50;;;9.11;100.00
55757;BME280;41676;44.610;44.078;2023-11-19T13:58:18;99068.09;;;9.13;100.00
55757;BME280;41676;44.610;44.078;2023-11-19T14:03:18;99017.88;;;9.05;100.00
55757;BME280;41676;44.610;44.078;2023-11-19T14:08:20;99022.63;;;9.10;100.00
55757;BME280;41676;44.610;44.078;2023-11-19T14:13:21;99003.44;;;9.08;100.00
55757;BME280;41676;44.610;44.078;2023-11-19T14:18:22;98989.16;;;9.09;100.00
55757;BME280;41676;44.610;44.078;2023-11-19T14:23:23;98953.69;;;8.82;100.00
55757;BME280;41676;44.610;44.078;2023-11-19T14:28:26;99033.00;;;9.11;100.00
55757;BME280;41676;44.610;44.078;2023-11-19T14:33:27;99028.09;;;9.08;100.00
55757;BME280;41676;44.610;44.078;2023-11-19T14:38:28;98992.91;;;8.93;100.00
55757;BME280;41676;44.610;44.078;2023-11-19T14:43:29;99044.50;;;9.19;100.00
55757;BME280;41676;44.610;44.078;2023-11-19T14:48:29;99049.22;;;9.23;100.00
55757;BME280;41676;44.610;44.078;2023-11-19T14:53:30;99054.34;;;9.25;100.00
55757;BME280;41676;44.610;44.078;2023-11-19T14:58:31;98988.00;;;8.90;100.00
55757;BME280;41676;44.610;44.078;2023-11-19T15:03:32;99026.94;;;9.18;100.00
55757;BME280;41676;44.610;44.078;2023-11-19T15:08:33;99032.28;;;9.24;100.00
55757;BME280;41676;44.610;44.078;2023-11-19T15:13:35;99021.94;;;9.29;100.00
55757;BME280;41676;44.610;44.078;2023-11-19T15:18:38;99007.72;;;9.30;100.00
55757;BME280;41676;44.610;44.078;2023-11-19T15:23:38;98935.47;;;8.94;100.00
55757;BME280;41676;44.610;44.078;2023-11-19T15:28:41;98987.50;;;9.29;100.00
55757;BME280;41676;44.610;44.078;2023-11-19T15:33:42;98947.03;;;9.14;100.00
55757;BME280;41676;44.610;44.078;2023-11-19T15:38:43;98954.22;;;9.20;100.00
55757;BME280;41676;44.610;44.078;2023-11-19T15:43:44;98957.91;;;9.26;100.00
55757;BME280;41676;44.610;44.078;2023-11-19T15:48:46;98918.72;;;9.14;100.00
55757;BME280;41676;44.610;44.078;2023-11-19T15:53:47;98931.19;;;9.21;100.00
55757;BME280;41676;44.610;44.078;2023-11-19T15:58:48;98882.28;;;8.88;100.00
55757;BME280;41676;44.610;44.078;2023-11-19T16:03:49;98959.22;;;9.36;100.00
55757;BME280;41676;44.610;44.078;2023-11-19T16:08:50;98963.53;;;9.44;100.00
55757;BME280;41676;44.610;44.078;2023-11-19T16:13:51;98963.16;;;9.47;100.00
55757;BME280;41676;44.610;44.078;2023-11-19T16:18:52;98958.72;;;9.54;100.00
55757;BME280;41676;44.610;44.078;2023-11-19T16:23:52;98943.84;;;9.60;100.00
55757;BME280;41676;44.610;44.078;2023-11-19T16:28:53;98922.47;;;9.68;100.00
55757;BME280;41676;44.610;44.078;2023-11-19T16:33:54;98855.47;;;9.40;100.00
55757;BME280;41676;44.610;44.078;2023-11-19T16:38:55;98890.91;;;9.80;100.00
55757;BME280;41676;44.610;44.078;2023-11-19T16:43:57;98905.41;;;9.84;100.00
55757;BME280;41676;44.610;44.078;2023-11-19T16:49:03;98892.78;;;9.86;100.00
55757;BME280;41676;44.610;44.078;2023-11-19T16:54:05;98866.38;;;9.65;100.00
55757;BME280;41676;44.610;44.078;2023-11-19T16:59:06;98883.38;;;9.83;100.00
55757;BME280;41676;44.610;44.078;2023-11-19T17:04:10;98855.63;;;9.86;100.00
55757;BME280;41676;44.610;44.078;2023-11-19T17:09:15;98850.16;;;9.88;100.00
55757;BME280;41676;44.610;44.078;2023-11-19T17:14:17;98849.13;;;9.89;100.00
55757;BME280;41676;44.610;44.078;2023-11-19T17:19:19;98826.88;;;9.83;100.00
55757;BME280;41676;44.610;44.078;2023-11-19T17:24:20;98763.78;;;9.65;100.00
55757;BME280;41676;44.610;44.078;2023-11-19T17:29:21;98792.81;;;9.93;100.00
55757;BME280;41676;44.610;44.078;2023-11-19T17:34:22;98798.13;;;9.93;100.00
55757;BME280;41676;44.610;44.078;2023-11-19T17:39:25;98801.59;;;9.94;100.00
55757;BME280;41676;44.610;44.078;2023-11-19T17:44:26;98810.38;;;9.94;100.00
55757;BME280;41676;44.610;44.078;2023-11-19T17:49:27;98821.59;;;9.96;100.00
55757;BME280;41676;44.610;44.078;2023-11-19T17:54:28;98821.19;;;9.99;100.00
55757;BME280;41676;44.610;44.078;2023-11-19T17:59:29;98835.88;;;10.02;100.00
55757;BME280;41676;44.610;44.078;2023-11-19T18:04:30;98815.91;;;9.99;100.00
55757;BME280;41676;44.610;44.078;2023-11-19T18:09:31;98805.88;;;10.01;100.00
55757;BME280;41676;44.610;44.078;2023-11-19T18:14:32;98769.13;;;9.78;100.00
55757;BME280;41676;44.610;44.078;2023-11-19T18:19:34;98785.28;;;10.03;100.00
55757;BME280;41676;44.610;44.078;2023-11-19T18:24:35;98776.50;;;10.03;100.00
55757;BME280;41676;44.610;44.078;2023-11-19T18:29:37;98814.28;;;10.12;100.00
55757;BME280;41676;44.610;44.078;2023-11-19T18:34:38;98814.47;;;10.17;100.00
55757;BME280;41676;44.610;44.078;2023-11-19T18:39:40;98825.31;;;10.22;100.00
55757;BME280;41676;44.610;44.078;2023-11-19T18:44:42;98766.31;;;9.93;100.00
55757;BME280;41676;44.610;44.078;2023-11-19T18:49:42;98726.09;;;9.76;100.00
55757;BME280;41676;44.610;44.078;2023-11-19T18:54:43;98772.22;;;10.09;100.00
55757;BME280;41676;44.610;44.078;2023-11-19T18:59:44;98751.78;;;9.96;100.00
55757;BME280;41676;44.610;44.078;2023-11-19T19:04:45;98759.56;;;9.97;100.00
55757;BME280;41676;44.610;44.078;2023-11-19T19:09:46;98756.91;;;9.97;100.00
55757;BME280;41676;44.610;44.078;2023-11-19T19:14:52;98735.88;;;9.96;100.00
55757;BME280;41676;44.610;44.078;2023-11-19T19:19:56;98710.19;;;9.96;100.00
55757;BME280;41676;44.610;44.078;2023-11-19T19:24:56;98700.59;;;9.95;100.00
55757;BME280;41676;44.610;44.078;2023-11-19T19:29:57;98683.03;;;9.81;100.00
55757;BME280;41676;44.610;44.078;2023-11-19T19:34:58;98730.16;;;9.99;100.00
55757;BME280;41676;44.610;44.078;2023-11-19T19:39:59;98706.28;;;9.99;100.00
55757;BME280;41676;44.610;44.078;2023-11-19T19:44:59;98659.78;;;9.70;100.00
55757;BME280;41676;44.610;44.078;2023-11-19T19:50:00;98617.97;;;9.52;100.00
55757;BME280;41676;44.610;44.078;2023-11-19T19:55:01;98696.69;;;10.04;100.00
55757;BME280;41676;44.610;44.078;2023-11-19T20:00:03;98690.59;;;10.04;100.00
55757;BME280;41676;44.610;44.078;2023-11-19T20:05:10;98709.97;;;10.18;100.00
55757;BME280;41676;44.610;44.078;2023-11-19T20:10:14;98697.94;;;10.35;100.00
55757;BME280;41676;44.610;44.078;2023-11-19T20:15:14;98647.34;;;9.90;100.00
55757;BME280;41676;44.610;44.078;2023-11-19T20:20:20;98694.25;;;10.16;100.00
55757;BME280;41676;44.610;44.078;2023-11-19T20:25:21;98705.28;;;10.13;100.00
55757;BME280;41676;44.610;44.078;2023-11-19T20:30:23;98692.63;;;10.09;100.00
55757;BME280;41676;44.610;44.078;2023-11-19T20:35:23;98700.38;;;10.17;100.00
55757;BME280;41676;44.610;44.078;2023-11-19T20:40:24;98686.50;;;10.15;100.00
55757;BME280;41676;44.610;44.078;2023-11-19T20:45:27;98676.31;;;10.12;100.00
55757;BME280;41676;44.610;44.078;2023-11-19T20:50:29;98625.50;;;10.08;100.00
55757;BME280;41676;44.610;44.078;2023-11-19T20:55:30;98647.50;;;10.22;100.00
55757;BME280;41676;44.610;44.078;2023-11-19T21:00:32;98600.63;;;9.89;100.00
55757;BME280;41676;44.610;44.078;2023-11-19T21:05:33;98693.66;;;10.21;100.00
55757;BME280;41676;44.610;44.078;2023-11-19T21:10:36;98651.19;;;10.07;100.00
55757;BME280;41676;44.610;44.078;2023-11-19T21:15:36;98670.78;;;10.33;100.00
55757;BME280;41676;44.610;44.078;2023-11-19T21:20:37;98662.59;;;10.35;100.00
55757;BME280;41676;44.610;44.078;2023-11-19T21:25:39;98671.00;;;10.38;100.00
55757;BME280;41676;44.610;44.078;2023-11-19T21:30:41;98642.44;;;10.27;100.00
55757;BME280;41676;44.610;44.078;2023-11-19T21:35:41;98667.72;;;10.36;100.00
55757;BME280;41676;44.610;44.078;2023-11-19T21:40:42;98656.28;;;10.36;100.00
55757;BME280;41676;44.610;44.078;2023-11-19T21:45:47;98646.91;;;10.33;100.00
55757;BME280;41676;44.610;44.078;2023-11-19T21:50:48;98633.66;;;10.26;100.00
55757;BME280;41676;44.610;44.078;2023-11-19T21:55:48;98633.41;;;10.21;100.00
55757;BME280;41676;44.610;44.078;2023-11-19T22:00:50;98649.34;;;10.35;100.00
55757;BME280;41676;44.610;44.078;2023-11-19T22:05:50;98591.81;;;10.09;100.00
55757;BME280;41676;44.610;44.078;2023-11-19T22:10:52;98627.47;;;10.26;100.00
55757;BME280;41676;44.610;44.078;2023-11-19T22:15:53;98576.72;;;10.02;100.00
55757;BME280;41676;44.610;44.078;2023-11-19T22:20:54;98570.78;;;10.07;100.00
55757;BME280;41676;44.610;44.078;2023-11-19T22:25:54;98548.16;;;9.98;100.00
55757;BME280;41676;44.610;44.078;2023-11-19T22:30:55;98609.94;;;10.32;100.00
55757;BME280;41676;44.610;44.078;2023-11-19T22:35:56;98621.41;;;10.32;100.00
55757;BME280;41676;44.610;44.078;2023-11-19T22:40:57;98637.31;;;10.32;100.00
55757;BME280;41676;44.610;44.078;2023-11-19T22:45:57;98649.97;;;10.30;100.00
55757;BME280;41676;44.610;44.078;2023-11-19T22:50:58;98646.69;;;10.28;100.00
55757;BME280;41676;44.610;44.078;2023-11-19T22:55:59;98666.94;;;10.29;100.00
55757;BME280;41676;44.610;44.078;2023-11-19T23:01:00;98678.53;;;10.28;100.00
55757;BME280;41676;44.610;44.078;2023-11-19T23:06:03;98640.19;;;9.97;100.00
55757;BME280;41676;44.610;44.078;2023-11-19T23:11:07;98684.25;;;10.25;100.00
55757;BME280;41676;44.610;44.078;2023-11-19T23:16:08;98668.72;;;10.22;100.00
55757;BME280;41676;44.610;44.078;2023-11-19T23:21:11;98622.88;;;9.81;100.00
55757;BME280;41676;44.610;44.078;2023-11-19T23:26:14;98651.00;;;10.09;100.00
55757;BME280;41676;44.610;44.078;2023-11-19T23:31:15;98608.59;;;9.82;100.00
55757;BME280;41676;44.610;44.078;2023-11-19T23:36:16;98626.34;;;9.82;100.00
55757;BME280;41676;44.610;44.078;2023-11-19T23:41:16;98665.50;;;10.00;100.00
55757;BME280;41676;44.610;44.078;2023-11-19T23:46:17;98650.81;;;9.97;100.00
55757;BME280;41676;44.610;44.078;2023-11-19T23:51:19;98664.06;;;9.97;100.00
55757;BME280;41676;44.610;44.078;2023-11-19T23:56:20;98640.00;;;9.86;100.00
